Time;durP1;ratioP1;P1;durP2;ratioP2;P2;SDS_P1;SDS_P2;PMS_P1;PMS_P2;Temp;Humidity;BMP_temperature;BMP_pressure;BME280_temperature;BME280_humidity;BME280_pressure;Samples;Min_cycle;Max_cycle;Signal;HPM_P1;HPM_P2
2022/05/26 00:01:05;;;;;;;10.32;6.28;;;15.40;95.70;;;;;;4974189;28;20066;-83
2022/05/26 00:03:42;;;;;;;10.70;6.45;;;15.40;96.00;;;;;;4974224;28;20438;-81
2022/05/26 00:06:10;;;;;;;10.35;6.18;;;15.40;96.10;;;;;;4974373;28;20117;-83
2022/05/26 00:08:37;;;;;;;12.10;7.28;;;15.40;96.00;;;;;;4978316;28;20114;-83
2022/05/26 00:11:12;;;;;;;13.45;8.52;;;15.40;96.10;;;;;;4977888;28;20394;-81
2022/05/26 00:13:41;;;;;;;13.57;8.80;;;15.30;96.30;;;;;;4977962;28;20031;-79
2022/05/26 00:16:08;;;;;;;14.07;9.68;;;15.30;96.60;;;;;;4977864;28;20037;-82
2022/05/26 00:18:34;;;;;;;14.63;9.55;;;15.30;96.90;;;;;;4977824;28;20106;-81
2022/05/26 00:21:00;;;;;;;14.32;9.98;;;15.30;96.90;;;;;;4977723;28;20050;-82
2022/05/26 00:23:26;;;;;;;16.38;10.73;;;15.20;97.40;;;;;;4977597;28;20030;-82
2022/05/26 00:25:51;;;;;;;15.27;10.35;;;15.30;97.30;;;;;;4977440;28;20031;-80
2022/05/26 00:28:17;;;;;;;16.30;11.25;;;15.20;97.60;;;;;;4977554;28;20480;-85
2022/05/26 00:30:43;;;;;;;16.55;11.05;;;15.20;97.70;;;;;;4977629;28;20026;-83
2022/05/26 00:33:09;;;;;;;13.48;10.00;;;15.20;97.80;;;;;;4977378;28;20035;-85
2022/05/26 00:35:37;;;;;;;16.45;11.00;;;15.20;97.70;;;;;;4977447;28;20029;-80
2022/05/26 00:38:08;;;;;;;18.00;11.82;;;15.10;98.10;;;;;;4976151;28;20019;-82
2022/05/26 00:40:34;;;;;;;16.85;10.20;;;15.10;98.20;;;;;;4994138;28;20030;-81
2022/05/26 00:42:59;;;;;;;15.07;9.25;;;15.10;98.10;;;;;;4996435;28;20034;-81
2022/05/26 00:45:36;;;;;;;13.25;9.70;;;15.10;98.10;;;;;;4978875;28;20029;-83
2022/05/26 00:48:05;;;;;;;16.20;9.63;;;15.10;98.20;;;;;;4996608;28;20027;-86
2022/05/26 00:50:33;;;;;;;15.25;10.70;;;15.10;98.30;;;;;;4996620;28;20050;-87
2022/05/26 00:53:07;;;;;;;12.98;9.70;;;15.10;98.50;;;;;;4996406;28;20113;-82
2022/05/26 00:55:40;;;;;;;13.27;9.07;;;15.10;98.40;;;;;;4995045;28;20029;-84
2022/05/26 00:58:11;;;;;;;15.23;10.55;;;15.00;98.40;;;;;;4996343;28;20386;-87
2022/05/26 01:00:38;;;;;;;17.92;11.23;;;15.10;98.60;;;;;;4995390;28;20026;-79
2022/05/26 01:03:10;;;;;;;15.95;9.98;;;15.10;98.70;;;;;;4995586;28;20391;-82
2022/05/26 01:05:46;;;;;;;16.52;11.35;;;15.10;98.70;;;;;;4996316;28;20097;-82
2022/05/26 01:08:20;;;;;;;16.15;9.82;;;15.10;98.80;;;;;;4995928;28;20029;-81
2022/05/26 01:10:45;;;;;;;19.15;9.77;;;15.10;98.70;;;;;;4998037;28;20026;-81
2022/05/26 01:13:15;;;;;;;16.25;10.27;;;15.00;98.80;;;;;;4991598;28;20045;-81
2022/05/26 01:15:46;;;;;;;17.05;10.60;;;15.00;98.80;;;;;;4976164;28;20055;-86
2022/05/26 01:18:28;;;;;;;13.52;10.45;;;15.00;98.90;;;;;;4990755;28;20031;-85
2022/05/26 01:21:09;;;;;;;21.23;11.95;;;15.00;99.00;;;;;;4976620;28;20027;-83
2022/05/26 01:23:56;;;;;;;14.15;10.82;;;15.00;99.00;;;;;;4976576;28;20426;-83
2022/05/26 01:27:00;;;;;;;17.83;10.35;;;15.00;99.00;;;;;;4976498;28;20102;-81
2022/05/26 01:30:02;;;;;;;15.77;10.13;;;15.00;99.00;;;;;;4991397;28;20122;-82
2022/05/26 01:32:52;;;;;;;17.02;10.73;;;15.00;99.10;;;;;;4976321;28;20058;-83
2022/05/26 01:35:35;;;;;;;16.00;10.40;;;15.10;99.20;;;;;;4976184;28;20097;-82
2022/05/26 01:38:29;;;;;;;17.80;11.15;;;15.10;99.10;;;;;;4991096;28;20031;-80
2022/05/26 01:41:28;;;;;;;16.80;10.88;;;15.10;99.20;;;;;;4976110;28;20042;-85
2022/05/26 01:44:22;;;;;;;18.25;11.25;;;15.10;99.20;;;;;;4974979;28;20019;-83
2022/05/26 01:46:50;;;;;;;18.67;10.93;;;15.10;99.20;;;;;;4975964;28;20078;-82
2022/05/26 01:49:27;;;;;;;20.27;12.20;;;15.10;99.30;;;;;;4958958;28;20033;-80
2022/05/26 01:52:12;;;;;;;18.17;11.18;;;15.10;99.30;;;;;;4991012;28;20479;-80
2022/05/26 01:55:12;;;;;;;19.08;10.95;;;15.10;99.30;;;;;;4975312;28;20081;-80
2022/05/26 01:57:56;;;;;;;16.48;11.20;;;15.10;99.20;;;;;;4974543;28;20125;-83
2022/05/26 02:00:22;;;;;;;;;;;15.10;99.20;;;;;;4976172;28;20057;-80
2022/05/26 02:03:21;;;;;;;20.67;11.52;;;15.10;99.30;;;;;;4974710;28;20359;-82
2022/05/26 02:06:19;;;;;;;23.48;11.63;;;15.10;99.20;;;;;;4969557;28;20041;-85
2022/05/26 02:08:55;;;;;;;18.20;11.18;;;15.10;99.30;;;;;;4981861;28;20439;-80
2022/05/26 02:11:22;;;;;;;19.40;11.27;;;15.10;99.30;;;;;;4975707;28;20406;-81
2022/05/26 02:14:02;;;;;;;22.58;13.05;;;15.10;99.30;;;;;;4975313;28;20030;-81
2022/05/26 02:16:48;;;;;;;22.70;11.55;;;15.10;99.40;;;;;;4975505;28;20034;-80
2022/05/26 02:19:59;;;;;;;22.63;11.00;;;15.10;99.40;;;;;;4975878;28;20030;-81
2022/05/26 02:22:38;;;;;;;20.92;11.65;;;15.10;99.40;;;;;;4954092;29;20078;-81
2022/05/26 02:25:09;;;;;;;21.58;12.48;;;15.10;99.40;;;;;;4972126;28;20365;-85
2022/05/26 02:27:37;;;;;;;25.05;12.48;;;15.10;99.40;;;;;;4990263;28;20121;-84
2022/05/26 02:30:05;;;;;;;20.55;13.07;;;15.10;99.40;;;;;;4975063;28;20352;-83
2022/05/26 02:32:37;;;;;;;19.60;10.95;;;15.10;99.50;;;;;;4975267;28;20387;-84
2022/05/26 02:35:15;;;;;;;21.90;11.45;;;15.10;99.40;;;;;;4975366;28;20027;-82
2022/05/26 02:37:43;;;;;;;22.23;11.38;;;15.00;99.40;;;;;;4975293;28;20163;-82
2022/05/26 02:40:10;;;;;;;25.00;11.38;;;15.10;99.40;;;;;;4975146;28;20159;-84
2022/05/26 02:42:47;;;;;;;18.83;10.50;;;15.10;99.40;;;;;;4975105;28;20034;-84
2022/05/26 02:45:13;;;;;;;24.23;12.18;;;15.10;99.40;;;;;;4975154;28;20026;-83
2022/05/26 02:48:07;;;;;;;24.17;12.27;;;15.10;99.40;;;;;;4957772;28;20026;-81
2022/05/26 02:50:54;;;;;;;22.77;11.63;;;15.10;99.40;;;;;;4975250;28;20019;-84
2022/05/26 02:53:45;;;;;;;25.20;12.13;;;15.10;99.40;;;;;;4977195;28;20754;-84
2022/05/26 02:56:27;;;;;;;25.08;12.95;;;15.10;99.40;;;;;;4987739;28;20022;-82
2022/05/26 02:59:11;;;;;;;28.25;12.60;;;15.10;99.40;;;;;;4993939;28;20030;-83
2022/05/26 03:02:00;;;;;;;23.73;11.10;;;15.10;99.50;;;;;;4994220;28;20026;-84
2022/05/26 03:04:32;;;;;;;23.60;11.10;;;15.10;99.50;;;;;;4994093;28;20134;-82
2022/05/26 03:07:02;;;;;;;28.88;11.57;;;15.10;99.50;;;;;;4993945;28;20097;-86
2022/05/26 03:09:33;;;;;;;25.38;11.85;;;15.10;99.50;;;;;;4992678;28;20109;-82
2022/05/26 03:11:59;;;;;;;23.08;11.52;;;15.10;99.50;;;;;;4993955;28;20057;-82
2022/05/26 03:14:26;;;;;;;28.98;11.45;;;15.10;99.60;;;;;;4993637;28;20518;-83
2022/05/26 03:16:52;;;;;;;23.52;10.68;;;15.10;99.90;;;;;;4992949;28;20051;-84
2022/05/26 03:19:18;;;;;;;24.50;11.32;;;15.10;99.60;;;;;;4991231;28;20507;-82
2022/05/26 03:21:45;;;;;;;23.58;10.73;;;15.10;99.70;;;;;;4983125;28;20383;-80
2022/05/26 03:24:11;;;;;;;25.70;11.27;;;15.10;99.60;;;;;;4989456;28;20030;-83
2022/05/26 03:26:37;;;;;;;25.33;12.00;;;15.00;99.70;;;;;;4973302;28;20442;-84
2022/05/26 03:29:03;;;;;;;25.20;11.68;;;15.00;99.70;;;;;;4973146;28;20034;-84
2022/05/26 03:31:30;;;;;;;27.88;11.20;;;15.00;99.80;;;;;;4973426;28;20031;-81
2022/05/26 03:42:11;;;;;;;24.55;9.88;;;14.90;99.90;;;;;;4976573;28;20038;-84
2022/05/26 03:44:37;;;;;;;32.95;9.70;;;14.90;99.90;;;;;;4978536;28;20113;-79
2022/05/26 03:47:03;;;;;;;28.60;10.73;;;14.90;99.90;;;;;;4978375;28;20161;-86
2022/05/26 03:49:28;;;;;;;26.23;10.40;;;14.80;99.90;;;;;;4978254;28;20145;-81
2022/05/26 03:51:57;;;;;;;22.33;11.07;;;14.90;99.90;;;;;;4978316;28;20078;-82
2022/05/26 03:54:23;;;;;;;30.92;10.32;;;14.90;99.90;;;;;;4978111;28;20038;-82
2022/05/26 03:56:49;;;;;;;25.70;10.65;;;14.80;99.90;;;;;;4977017;28;20041;-84
2022/05/26 03:59:14;;;;;;;22.33;8.63;;;14.80;99.90;;;;;;4978068;28;20034;-80
2022/05/26 04:01:40;;;;;;;31.33;10.35;;;14.80;99.90;;;;;;4976939;28;20054;-82
2022/05/26 04:04:06;;;;;;;26.52;9.77;;;14.80;99.90;;;;;;4976669;28;20035;-82
2022/05/26 04:06:32;;;;;;;23.25;9.25;;;14.70;99.90;;;;;;4976688;28;20031;-83
2022/05/26 04:08:59;;;;;;;29.77;10.55;;;14.70;99.90;;;;;;4978177;28;20105;-85
2022/05/26 04:11:25;;;;;;;23.63;10.50;;;14.70;99.90;;;;;;4977826;28;20035;-80
2022/05/26 04:13:51;;;;;;;25.30;8.93;;;14.70;99.90;;;;;;4977552;28;20061;-81
2022/05/26 04:16:17;;;;;;;26.33;9.60;;;14.60;99.90;;;;;;4977697;28;20118;-82
2022/05/26 04:18:43;;;;;;;28.67;10.88;;;14.60;99.90;;;;;;4976647;28;20549;-85
2022/05/26 04:21:11;;;;;;;25.70;9.80;;;14.60;99.90;;;;;;4999521;28;20022;-83
2022/05/26 04:23:37;;;;;;;27.40;10.27;;;14.60;99.90;;;;;;4997084;28;20502;-79
2022/05/26 04:26:04;;;;;;;28.98;9.05;;;14.60;99.90;;;;;;5006012;28;20068;-82
2022/05/26 04:28:30;;;;;;;27.02;9.15;;;14.50;99.90;;;;;;5015511;28;20385;-80
2022/05/26 04:30:56;;;;;;;30.45;9.15;;;14.60;99.90;;;;;;5007321;28;20037;-83
2022/05/26 04:33:22;;;;;;;32.28;8.93;;;14.60;99.90;;;;;;4995607;28;20538;-80
2022/05/26 04:35:48;;;;;;;28.48;8.93;;;14.60;99.90;;;;;;4996790;28;20029;-85
2022/05/26 04:38:13;;;;;;;31.77;10.75;;;14.60;99.90;;;;;;4995493;28;20030;-83
2022/05/26 04:40:39;;;;;;;25.17;8.23;;;14.60;99.90;;;;;;4995398;28;20022;-80
2022/05/26 04:43:06;;;;;;;27.85;9.48;;;14.60;99.90;;;;;;5011705;28;20073;-82
2022/05/26 04:45:32;;;;;;;22.38;7.95;;;14.60;99.90;;;;;;4979320;28;20031;-80
2022/05/26 04:47:58;;;;;;;36.90;9.20;;;14.70;99.90;;;;;;4996766;28;20096;-81
2022/05/26 04:50:24;;;;;;;28.42;8.75;;;14.60;99.90;;;;;;4996803;28;20034;-80
2022/05/26 04:52:49;;;;;;;28.33;7.50;;;14.70;99.90;;;;;;4996343;28;20073;-80
2022/05/26 04:55:15;;;;;;;24.05;7.63;;;14.70;99.90;;;;;;5011541;28;20053;-79
2022/05/26 04:57:41;;;;;;;24.83;7.75;;;14.70;99.90;;;;;;4995392;28;20041;-81
2022/05/26 05:00:12;;;;;;;27.52;7.85;;;14.70;99.90;;;;;;5011547;28;20120;-82
2022/05/26 05:02:38;;;;;;;34.60;8.88;;;14.80;99.90;;;;;;4995165;28;20030;-81
2022/05/26 05:05:05;;;;;;;30.35;7.75;;;14.80;99.90;;;;;;4996455;28;20076;-83
2022/05/26 05:07:31;;;;;;;25.27;7.97;;;14.80;99.90;;;;;;4996173;28;20026;-82
2022/05/26 05:09:57;;;;;;;23.98;8.05;;;14.90;99.90;;;;;;4996270;28;20613;-82
2022/05/26 05:12:24;;;;;;;25.90;7.47;;;14.90;99.90;;;;;;4996169;28;20034;-83
2022/05/26 05:14:52;;;;;;;25.08;7.00;;;14.90;99.90;;;;;;4996037;28;20066;-82
2022/05/26 05:17:20;;;;;;;30.88;7.50;;;14.90;99.90;;;;;;5011149;28;20164;-82
2022/05/26 05:19:47;;;;;;;25.52;7.55;;;15.00;99.90;;;;;;4996098;28;20022;-80
2022/05/26 05:22:23;;;;;;;25.15;7.43;;;15.10;99.90;;;;;;5011118;28;20022;-84
2022/05/26 05:25:00;;;;;;;26.83;8.32;;;15.10;99.90;;;;;;4996387;28;20478;-85
2022/05/26 05:27:29;;;;;;;34.38;7.55;;;15.10;99.90;;;;;;4996019;28;20479;-85
2022/05/26 05:29:58;;;;;;;30.02;7.88;;;15.10;99.90;;;;;;5010846;28;20026;-82
2022/05/26 05:32:31;;;;;;;27.88;7.18;;;15.10;99.90;;;;;;4995754;28;20467;-83
2022/05/26 05:35:02;;;;;;;25.85;7.40;;;15.20;99.90;;;;;;5010766;28;20036;-83
2022/05/26 05:37:31;;;;;;;23.35;8.10;;;15.20;99.90;;;;;;5010828;28;20022;-83
2022/05/26 05:39:56;;;;;;;25.55;7.18;;;15.30;99.90;;;;;;4995374;28;20023;-81
2022/05/26 05:42:23;;;;;;;24.38;6.95;;;15.30;99.90;;;;;;4994334;28;20531;-79
2022/05/26 05:44:48;;;;;;;21.73;6.90;;;15.40;99.90;;;;;;5005616;28;20037;-78
2022/05/26 05:47:14;;;;;;;24.40;7.75;;;15.40;99.90;;;;;;4987341;28;20030;-80
2022/05/26 05:49:40;;;;;;;30.45;7.78;;;15.40;99.90;;;;;;4998301;28;20038;-85
2022/05/26 05:52:10;;;;;;;24.13;6.22;;;15.40;99.90;;;;;;4989720;28;20157;-81
2022/05/26 05:54:36;;;;;;;24.88;7.00;;;15.40;99.90;;;;;;4974465;28;20106;-82
2022/05/26 05:57:02;;;;;;;21.80;7.10;;;15.40;99.90;;;;;;4975561;28;20019;-80
2022/05/26 05:59:27;;;;;;;24.95;6.80;;;15.50;99.90;;;;;;4974577;28;20542;-82
2022/05/26 06:01:54;;;;;;;22.08;6.15;;;15.50;99.90;;;;;;4976033;28;20031;-79
2022/05/26 06:04:19;;;;;;;21.35;5.93;;;15.50;99.90;;;;;;4975152;28;20550;-81
2022/05/26 06:06:45;;;;;;;27.48;7.03;;;15.50;99.90;;;;;;4988060;28;20047;-84
2022/05/26 06:09:16;;;;;;;23.20;6.32;;;15.60;99.90;;;;;;4995021;28;20022;-82
2022/05/26 06:11:42;;;;;;;23.73;6.45;;;15.60;99.90;;;;;;4993700;28;20022;-81
2022/05/26 06:14:08;;;;;;;27.75;6.65;;;15.70;99.90;;;;;;4994186;28;20051;-80
2022/05/26 06:16:34;;;;;;;26.80;6.55;;;15.70;99.90;;;;;;4995011;28;20510;-80
2022/05/26 06:19:00;;;;;;;20.70;5.80;;;15.80;99.90;;;;;;4994971;28;20058;-80
2022/05/26 06:21:26;;;;;;;25.92;7.15;;;15.80;99.80;;;;;;4993732;28;20029;-79
2022/05/26 06:23:55;;;;;;;16.50;4.63;;;15.90;99.60;;;;;;4994808;28;20092;-79
2022/05/26 06:26:21;;;;;;;24.23;5.75;;;15.90;99.60;;;;;;4994641;28;20482;-80
2022/05/26 06:31:31;;;;;;;16.77;4.25;;;15.90;99.10;;;;;;4992843;28;20521;-79
2022/05/26 06:37:13;;;;;;;21.48;5.55;;;15.90;98.70;;;;;;4994913;28;20046;-79
2022/05/26 06:39:26;;;;;;;21.98;4.78;;;15.80;98.60;;;;;;4993161;28;20034;-82
2022/05/26 06:42:06;;;;;;;22.52;6.00;;;15.90;98.80;;;;;;4993444;28;20430;-81
2022/05/26 06:44:37;;;;;;;16.52;4.38;;;15.90;98.70;;;;;;4994582;28;20038;-81
2022/05/26 06:47:08;;;;;;;18.05;4.95;;;16.00;98.70;;;;;;4994840;28;20050;-80
2022/05/26 06:49:36;;;;;;;17.77;4.03;;;16.00;98.50;;;;;;4994444;28;20026;-83
2022/05/26 06:52:02;;;;;;;16.90;4.10;;;16.10;98.40;;;;;;4993157;28;20031;-79
2022/05/26 06:54:37;;;;;;;14.68;3.75;;;16.10;98.10;;;;;;4993136;28;20464;-82
2022/05/26 06:57:04;;;;;;;15.45;3.63;;;16.10;97.70;;;;;;4994120;28;20026;-84
2022/05/26 06:59:30;;;;;;;18.58;3.30;;;16.00;97.50;;;;;;4994200;28;20023;-83
2022/05/26 07:01:55;;;;;;;21.67;4.30;;;16.10;97.50;;;;;;4992994;28;20030;-82
2022/05/26 07:04:22;;;;;;;16.17;2.97;;;16.10;97.00;;;;;;4993024;28;20066;-82
2022/05/26 07:06:50;;;;;;;13.65;3.42;;;16.10;96.20;;;;;;4994223;28;20022;-80
2022/05/26 07:09:16;;;;;;;10.88;3.17;;;16.10;96.10;;;;;;4992946;28;20131;-80
2022/05/26 07:11:41;;;;;;;14.38;2.33;;;16.20;96.10;;;;;;4976723;28;20129;-79
2022/05/26 07:14:07;;;;;;;10.02;2.15;;;16.30;96.00;;;;;;4993809;28;20062;-82
2022/05/26 07:16:33;;;;;;;12.05;2.33;;;16.30;95.10;;;;;;4994296;28;20467;-80
2022/05/26 07:18:59;;;;;;;10.43;2.65;;;16.30;95.10;;;;;;4987765;28;20026;-81
2022/05/26 07:21:25;;;;;;;14.63;2.13;;;16.40;94.40;;;;;;4984843;28;20030;-81
2022/05/26 07:23:51;;;;;;;12.63;2.25;;;16.40;94.60;;;;;;4974421;28;20392;-80
2022/05/26 07:26:17;;;;;;;14.50;2.55;;;16.40;94.50;;;;;;4974322;28;20416;-80
2022/05/26 07:28:43;;;;;;;15.95;3.10;;;16.40;94.80;;;;;;4974828;28;20431;-81
2022/05/26 07:31:11;;;;;;;10.50;2.53;;;16.50;94.70;;;;;;4979850;28;20037;-80
2022/05/26 07:33:37;;;;;;;11.70;2.53;;;16.60;94.80;;;;;;4994138;28;20483;-81
2022/05/26 07:36:03;;;;;;;9.95;2.15;;;16.60;94.00;;;;;;4993941;28;20034;-79
2022/05/26 07:41:20;;;;;;;15.93;3.17;;;16.70;94.00;;;;;;4994147;28;20134;-79
2022/05/26 07:43:52;;;;;;;11.10;1.95;;;16.70;93.50;;;;;;4994220;28;20035;-80
2022/05/26 07:46:18;;;;;;;12.13;2.10;;;16.80;93.30;;;;;;4993916;28;20034;-81
2022/05/26 07:48:44;;;;;;;6.93;1.20;;;16.80;93.00;;;;;;4992721;28;20088;-81
2022/05/26 07:51:10;;;;;;;9.23;1.70;;;16.90;91.80;;;;;;4993674;28;20042;-83
2022/05/26 07:53:35;;;;;;;7.00;1.20;;;17.00;91.90;;;;;;4973934;28;20133;-79
2022/05/26 07:56:02;;;;;;;5.85;1.42;;;17.10;91.20;;;;;;4988977;28;20038;-79
2022/05/26 07:58:28;;;;;;;9.50;1.40;;;17.10;91.00;;;;;;4972853;28;20035;-85
2022/05/26 08:00:54;;;;;;;10.25;1.30;;;17.20;90.80;;;;;;4975459;28;20451;-81
2022/05/26 08:03:21;;;;;;;8.55;1.20;;;17.30;90.60;;;;;;4988985;28;20042;-83
2022/05/26 08:05:46;;;;;;;5.97;1.00;;;17.30;90.10;;;;;;4988824;28;20031;-81
2022/05/26 08:08:12;;;;;;;9.57;2.05;;;17.40;90.10;;;;;;4973047;28;20098;-77
2022/05/26 08:10:39;;;;;;;6.20;1.92;;;17.50;90.40;;;;;;4974371;28;20034;-79
2022/05/26 08:13:06;;;;;;;12.98;2.92;;;17.60;90.70;;;;;;4974544;28;20042;-83
2022/05/26 08:15:32;;;;;;;9.52;1.95;;;17.60;90.90;;;;;;4988842;28;20054;-81
2022/05/26 08:17:58;;;;;;;13.60;2.63;;;17.60;90.40;;;;;;4972872;28;20046;-79
2022/05/26 08:20:25;;;;;;;11.73;1.80;;;17.60;90.00;;;;;;4974103;28;20034;-80
2022/05/26 08:22:50;;;;;;;8.40;1.75;;;17.60;90.00;;;;;;4973133;28;20039;-82
2022/05/26 08:25:16;;;;;;;10.85;2.00;;;17.60;89.80;;;;;;4979642;28;20483;-80
2022/05/26 08:27:42;;;;;;;7.05;1.10;;;17.70;90.00;;;;;;5005094;28;20022;-83
2022/05/26 08:30:09;;;;;;;5.88;1.08;;;17.70;89.80;;;;;;4989509;28;20483;-80
2022/05/26 08:32:34;;;;;;;6.75;1.30;;;17.90;89.30;;;;;;4996705;28;20089;-80
2022/05/26 08:35:06;;;;;;;7.80;1.33;;;18.00;88.20;;;;;;4995766;28;20034;-79
2022/05/26 08:37:32;;;;;;;6.18;0.90;;;18.10;87.60;;;;;;4996795;28;20022;-79
2022/05/26 08:39:57;;;;;;;5.15;1.30;;;18.10;86.80;;;;;;4995606;28;20450;-79
2022/05/26 08:42:27;;;;;;;6.00;1.50;;;18.20;86.80;;;;;;4995181;28;20121;-80
2022/05/26 08:44:56;;;;;;;7.07;1.17;;;18.30;84.80;;;;;;5011739;28;20022;-80
2022/05/26 08:47:44;;;;;;;6.47;1.20;;;18.20;84.30;;;;;;5006255;28;20117;-81
2022/05/26 08:50:16;;;;;;;7.50;1.20;;;18.20;84.60;;;;;;4996646;28;20084;-79
2022/05/26 08:52:48;;;;;;;8.45;1.52;;;18.10;84.80;;;;;;4993312;28;20041;-80
2022/05/26 08:55:27;;;;;;;5.80;0.93;;;18.20;85.10;;;;;;4996483;28;20058;-84
2022/05/26 08:58:14;;;;;;;9.70;1.63;;;18.20;85.30;;;;;;4995411;28;20022;-79
2022/05/26 09:00:42;;;;;;;7.15;1.20;;;18.10;85.00;;;;;;4994870;28;20483;-79
2022/05/26 09:03:28;;;;;;;8.25;1.17;;;18.10;84.20;;;;;;4995296;28;20058;-83
2022/05/26 09:06:16;;;;;;;8.43;1.30;;;18.20;83.20;;;;;;4996216;28;20089;-81
2022/05/26 09:14:27;;;;;;;5.70;0.93;;;18.50;81.30;;;;;;4996298;28;20149;-80
2022/05/26 09:17:04;;;;;;;6.97;1.27;;;18.50;79.10;;;;;;4996154;28;20034;-79
2022/05/26 09:19:43;;;;;;;5.57;0.75;;;18.60;79.70;;;;;;4994817;28;20019;-83
2022/05/26 09:22:24;;;;;;;12.45;1.70;;;18.60;80.80;;;;;;4995959;28;20379;-82
2022/05/26 09:24:50;;;;;;;7.00;1.30;;;18.60;81.70;;;;;;4995980;28;20080;-81
2022/05/26 09:27:34;;;;;;;9.40;1.75;;;18.70;81.60;;;;;;4995945;28;20390;-81
2022/05/26 09:30:18;;;;;;;5.75;1.20;;;18.80;81.00;;;;;;4995437;28;20030;-81
2022/05/26 09:32:45;;;;;;;7.40;1.80;;;18.80;80.50;;;;;;4995310;28;20030;-80
2022/05/26 09:35:18;;;;;;;7.82;1.88;;;18.70;80.80;;;;;;4995850;28;20576;-81
2022/05/26 09:37:53;;;;;;;8.20;1.20;;;18.70;81.30;;;;;;4995953;28;20035;-81
2022/05/26 09:40:20;;;;;;;9.07;1.67;;;18.90;82.20;;;;;;4994794;28;20026;-79
2022/05/26 09:42:51;;;;;;;5.53;1.30;;;18.90;81.20;;;;;;4995663;28;20467;-80
2022/05/26 09:45:18;;;;;;;8.85;1.20;;;19.10;80.80;;;;;;4994513;28;20491;-81
2022/05/26 09:47:54;;;;;;;6.10;1.10;;;19.10;77.90;;;;;;4995776;28;20056;-81
2022/05/26 09:50:41;;;;;;;7.80;1.20;;;19.20;77.00;;;;;;4995570;28;20382;-79
2022/05/26 09:53:10;;;;;;;8.68;1.00;;;19.30;76.40;;;;;;4995586;28;20088;-82
2022/05/26 09:55:49;;;;;;;9.10;1.17;;;19.40;74.70;;;;;;4994310;28;20513;-82
2022/05/26 09:58:28;;;;;;;7.22;1.08;;;19.40;74.70;;;;;;4995402;28;20055;-83
2022/05/26 10:01:02;;;;;;;4.57;1.08;;;19.50;74.50;;;;;;4995488;28;20026;-84
2022/05/26 10:03:54;;;;;;;7.05;0.90;;;19.60;73.80;;;;;;4995359;28;20034;-80
2022/05/26 10:06:51;;;;;;;4.45;0.80;;;19.60;72.40;;;;;;4994903;28;20035;-82
2022/05/26 10:09:48;;;;;;;4.07;0.60;;;19.60;69.90;;;;;;4985250;28;20081;-77
2022/05/26 10:12:51;;;;;;;5.70;0.77;;;19.60;70.20;;;;;;4987017;28;20077;-78
2022/05/26 10:15:42;;;;;;;5.68;0.70;;;19.70;70.20;;;;;;4984801;28;20549;-80
2022/05/26 10:18:25;;;;;;;6.93;1.05;;;19.60;70.20;;;;;;4984324;28;20399;-79
2022/05/26 10:21:12;;;;;;;5.75;1.05;;;19.50;71.00;;;;;;4991457;28;20042;-81
2022/05/26 10:23:52;;;;;;;7.55;1.02;;;19.60;72.10;;;;;;4976225;28;20034;-80
2022/05/26 10:26:43;;;;;;;6.68;1.00;;;19.70;72.00;;;;;;4975627;28;20027;-80
2022/05/26 10:29:29;;;;;;;8.80;1.20;;;19.70;72.40;;;;;;4990406;28;20485;-79
2022/05/26 10:31:58;;;;;;;6.30;0.95;;;19.60;72.10;;;;;;4991625;28;20058;-81
2022/05/26 10:34:42;;;;;;;7.75;1.30;;;19.60;72.60;;;;;;4994302;28;20378;-78
2022/05/26 10:37:41;;;;;;;10.30;1.35;;;19.80;71.40;;;;;;4994856;28;20030;-81
2022/05/26 10:40:31;;;;;;;8.18;0.95;;;20.00;70.50;;;;;;4975027;28;20406;-78
2022/05/26 10:43:04;;;;;;;5.35;0.73;;;20.30;69.20;;;;;;4989898;28;20426;-82
2022/05/26 10:45:38;;;;;;;8.85;1.27;;;20.60;68.00;;;;;;4975103;28;20492;-79
2022/05/26 10:48:07;;;;;;;;;;;20.60;67.50;;;;;;4997278;28;20427;-80
2022/05/26 10:50:44;;;;;;;6.00;1.20;;;20.70;68.50;;;;;;4994281;28;19906;-79
2022/05/26 10:53:25;;;;;;;7.15;1.05;;;21.00;67.90;;;;;;4994265;28;20077;-79
2022/05/26 10:56:13;;;;;;;4.53;0.85;;;21.10;68.20;;;;;;4994298;28;20029;-79
2022/05/26 10:58:44;;;;;;;3.72;0.50;;;21.70;67.40;;;;;;4994488;28;20030;-81
2022/05/26 11:01:32;;;;;;;2.75;0.43;;;22.00;64.20;;;;;;4994564;28;20030;-79
2022/05/26 11:04:28;;;;;;;7.40;1.23;;;22.10;62.90;;;;;;4994218;28;20034;-80
2022/05/26 11:06:59;;;;;;;6.00;0.88;;;22.30;62.30;;;;;;4987519;28;20037;-83
2022/05/26 11:09:35;;;;;;;7.50;1.05;;;22.70;61.90;;;;;;4994156;28;20030;-80
2022/05/26 11:12:07;;;;;;;4.18;0.70;;;23.20;60.90;;;;;;4993043;28;20018;-80
2022/05/26 11:17:53;;;;;;;4.85;0.80;;;24.00;59.20;;;;;;4994591;28;20084;-82
2022/05/26 11:20:27;;;;;;;10.32;0.80;;;24.10;57.80;;;;;;4992861;28;20029;-82
2022/05/26 11:22:53;;;;;;;3.63;0.60;;;24.00;57.50;;;;;;4994212;28;20165;-81
2022/05/26 11:25:31;;;;;;;3.70;0.50;;;24.20;56.50;;;;;;4992889;28;20541;-81
2022/05/26 11:27:59;;;;;;;3.67;0.77;;;24.10;56.50;;;;;;4994079;28;20030;-79
2022/05/26 11:37:15;;;;;;;2.80;0.40;;;23.80;56.70;;;;;;4993940;28;20054;-80
2022/05/26 11:39:42;;;;;;;5.97;0.70;;;23.60;57.10;;;;;;4994124;28;20031;-79
2022/05/26 11:42:13;;;;;;;5.53;0.57;;;23.70;57.20;;;;;;4992918;28;20113;-79
2022/05/26 11:44:42;;;;;;;2.80;0.50;;;23.80;56.50;;;;;;4994063;28;20105;-80
2022/05/26 11:47:16;;;;;;;3.10;0.40;;;23.70;56.10;;;;;;4993872;28;20037;-81
2022/05/26 11:49:47;;;;;;;3.22;0.40;;;23.70;56.00;;;;;;4992510;28;20033;-80
2022/05/26 11:52:24;;;;;;;3.25;0.50;;;23.70;56.00;;;;;;4992626;28;20065;-81
2022/05/26 11:54:52;;;;;;;5.47;0.50;;;23.70;56.20;;;;;;4993831;28;20038;-79
2022/05/26 11:57:36;;;;;;;3.47;0.43;;;23.70;56.10;;;;;;4992347;28;20029;-80
2022/05/26 12:00:22;;;;;;;4.50;0.75;;;23.60;56.00;;;;;;4992584;28;20063;-80
2022/05/26 12:02:51;;;;;;;3.50;0.50;;;23.60;56.00;;;;;;4993833;28;20026;-80
2022/05/26 12:05:28;;;;;;;5.40;0.60;;;23.60;55.90;;;;;;4996484;28;20092;-80
2022/05/26 12:08:03;;;;;;;6.18;0.60;;;23.60;56.10;;;;;;4992893;28;20030;-81
2022/05/26 12:10:37;;;;;;;4.75;0.77;;;23.60;56.20;;;;;;4978005;28;20030;-81
2022/05/26 12:13:27;;;;;;;3.28;0.50;;;23.60;56.20;;;;;;4977580;28;20027;-79
2022/05/26 12:16:11;;;;;;;2.67;0.60;;;23.80;56.00;;;;;;4986703;28;20085;-80
2022/05/26 12:18:46;;;;;;;3.15;0.50;;;23.80;56.00;;;;;;4997021;28;20562;-80
2022/05/26 12:21:39;;;;;;;2.90;0.30;;;23.90;55.80;;;;;;5012255;28;20031;-81
2022/05/26 12:24:34;;;;;;;3.45;0.40;;;24.10;55.30;;;;;;4986201;28;20435;-80
2022/05/26 12:27:01;;;;;;;3.40;0.57;;;24.20;55.10;;;;;;4996961;28;20033;-80
2022/05/26 12:30:05;;;;;;;4.78;0.50;;;24.30;55.00;;;;;;4996991;28;20034;-79
2022/05/26 12:32:36;;;;;;;4.60;0.57;;;24.40;54.60;;;;;;4955074;28;20574;-83
2022/05/26 12:35:34;;;;;;;4.20;0.55;;;24.60;54.90;;;;;;4990230;28;20038;-82
2022/05/26 12:38:23;;;;;;;4.22;0.55;;;24.90;54.70;;;;;;4996076;28;20026;-81
2022/05/26 12:41:08;;;;;;;4.30;0.77;;;25.10;53.90;;;;;;5006143;28;20084;-74
2022/05/26 12:43:46;;;;;;;2.58;0.38;;;25.20;53.50;;;;;;4993289;28;20038;-75
2022/05/26 12:46:50;;;;;;;3.83;0.47;;;25.20;53.20;;;;;;4996433;28;20031;-74
2022/05/26 12:49:36;;;;;;;5.03;0.60;;;25.10;52.60;;;;;;4996850;28;20057;-74
2022/05/26 12:52:08;;;;;;;2.95;0.50;;;25.00;52.70;;;;;;4994718;28;20055;-75
2022/05/26 12:54:42;;;;;;;5.30;0.40;;;25.00;52.50;;;;;;4996225;28;20526;-74
2022/05/26 12:57:14;;;;;;;4.03;0.50;;;24.80;52.60;;;;;;4994742;28;20022;-75
2022/05/26 12:59:40;;;;;;;6.18;1.02;;;24.90;52.70;;;;;;5003177;28;20030;-75
2022/05/26 13:02:08;;;;;;;6.05;0.50;;;24.80;52.20;;;;;;4992243;28;20033;-76
2022/05/26 13:04:35;;;;;;;2.78;0.50;;;24.70;52.70;;;;;;4995234;28;20432;-74
2022/05/26 13:07:06;;;;;;;2.55;0.50;;;24.70;53.60;;;;;;4994255;28;20365;-74
2022/05/26 13:09:41;;;;;;;6.32;0.60;;;24.70;53.10;;;;;;4995953;28;20035;-78
2022/05/26 13:12:07;;;;;;;3.78;0.75;;;24.60;53.30;;;;;;4994709;28;20044;-76
2022/05/26 13:14:44;;;;;;;4.68;0.60;;;24.60;53.60;;;;;;4995561;28;20486;-74
2022/05/26 13:17:10;;;;;;;4.75;0.70;;;24.70;53.60;;;;;;4995131;28;20029;-75
2022/05/26 13:19:48;;;;;;;6.20;1.00;;;24.70;54.00;;;;;;4987985;28;20038;-75
2022/05/26 13:22:28;;;;;;;5.60;0.85;;;24.70;53.50;;;;;;4976371;28;20023;-74
2022/05/26 13:25:15;;;;;;;4.63;0.88;;;24.70;53.60;;;;;;4976147;28;20106;-76
2022/05/26 13:27:48;;;;;;;5.75;1.17;;;24.60;54.40;;;;;;4976411;28;20034;-74
2022/05/26 13:33:27;;;;;;;7.88;1.00;;;24.70;53.90;;;;;;4976307;28;20550;-76
2022/05/26 13:36:00;;;;;;;6.88;1.10;;;24.80;54.10;;;;;;4976090;28;20029;-75
2022/05/26 13:38:48;;;;;;;4.50;1.05;;;24.80;54.10;;;;;;4992815;28;20029;-74
2022/05/26 13:41:26;;;;;;;6.20;1.48;;;24.80;54.10;;;;;;5010818;28;20415;-75
2022/05/26 13:43:54;;;;;;;4.72;1.42;;;24.70;54.10;;;;;;4995577;28;20374;-75